Time;durP1;ratioP1;P1;durP2;ratioP2;P2;SDS_P1;SDS_P2;PMS_P1;PMS_P2;Temp;Humidity;BMP_temperature;BMP_pressure;BME280_temperature;BME280_humidity;BME280_pressure;Samples;Min_cycle;Max_cycle;Signal;HPM_P1;HPM_P2
2021/01/12 00:01:48;;;;;;;19.93;15.40;;;1.00;99.90;;;;;;5036460;28;20256;-58
2021/01/12 00:04:13;;;;;;;18.00;14.80;;;1.00;99.90;;;;;;5022560;28;20196;-59
2021/01/12 00:06:40;;;;;;;20.50;16.03;;;0.90;99.90;;;;;;5016457;28;20184;-60
2021/01/12 00:09:06;;;;;;;21.50;15.77;;;1.00;99.90;;;;;;5015478;28;20638;-58
2021/01/12 00:11:31;;;;;;;18.83;14.37;;;1.00;99.90;;;;;;5016087;28;20430;-57
2021/01/12 00:13:57;;;;;;;18.30;15.90;;;1.00;99.90;;;;;;5016138;28;20206;-60
2021/01/12 00:16:23;;;;;;;19.53;14.43;;;1.10;99.90;;;;;;4998723;28;20176;-59
2021/01/12 00:18:49;;;;;;;22.20;16.13;;;1.00;99.90;;;;;;5016665;28;20770;-58
2021/01/12 00:21:15;;;;;;;18.60;15.53;;;0.70;99.90;;;;;;5016201;28;20200;-57
2021/01/12 00:23:41;;;;;;;21.43;15.40;;;0.70;99.90;;;;;;5016434;28;20185;-59
2021/01/12 00:26:08;;;;;;;22.03;16.13;;;0.70;99.90;;;;;;5032837;28;20905;-59
2021/01/12 00:28:37;;;;;;;16.60;14.13;;;0.50;99.90;;;;;;5035831;28;20418;-59
2021/01/12 00:31:06;;;;;;;21.30;14.97;;;0.60;99.90;;;;;;5035734;28;20439;-59
2021/01/12 00:33:32;;;;;;;22.93;15.27;;;0.50;99.90;;;;;;5018279;28;20550;-59
2021/01/12 00:36:07;;;;;;;21.43;15.93;;;0.50;99.90;;;;;;5016288;28;20432;-59
2021/01/12 00:38:34;;;;;;;20.40;16.10;;;0.80;99.90;;;;;;5016321;28;20892;-59
2021/01/12 00:41:05;;;;;;;25.37;17.50;;;0.80;99.90;;;;;;5015502;28;20483;-59
2021/01/12 00:43:31;;;;;;;21.07;16.13;;;0.80;99.90;;;;;;5016071;28;20814;-59
2021/01/12 00:45:57;;;;;;;23.27;17.77;;;0.80;99.90;;;;;;5015963;28;20416;-58
2021/01/12 00:48:22;;;;;;;23.27;15.87;;;0.70;99.90;;;;;;5014265;28;20609;-58
2021/01/12 00:50:48;;;;;;;24.33;18.97;;;0.60;99.90;;;;;;5015590;28;20242;-59
2021/01/12 00:53:13;;;;;;;23.80;16.00;;;0.60;99.90;;;;;;5015635;28;20280;-58
2021/01/12 00:55:39;;;;;;;20.60;15.80;;;0.50;99.90;;;;;;5015479;28;20196;-57
2021/01/12 00:58:05;;;;;;;22.47;16.17;;;0.50;99.90;;;;;;5015429;28;20196;-55
2021/01/12 01:00:31;;;;;;;20.10;15.80;;;0.40;99.90;;;;;;5015732;28;20276;-56
2021/01/12 01:02:56;;;;;;;19.20;15.37;;;0.50;99.90;;;;;;4999313;28;20183;-56
2021/01/12 01:05:22;;;;;;;25.50;17.40;;;0.50;99.90;;;;;;5016502;28;20512;-56
2021/01/12 01:07:47;;;;;;;18.73;14.33;;;0.50;99.90;;;;;;5018747;28;20182;-58
2021/01/12 01:10:13;;;;;;;21.77;16.10;;;0.60;99.90;;;;;;5019776;28;20239;-59
2021/01/12 01:12:39;;;;;;;20.20;15.37;;;0.60;99.90;;;;;;5022938;28;20204;-55
2021/01/12 01:15:05;;;;;;;22.03;16.10;;;0.70;99.90;;;;;;5023492;28;20454;-59
2021/01/12 01:17:34;;;;;;;19.80;16.17;;;0.70;99.90;;;;;;5029592;28;20198;-59
2021/01/12 01:19:59;;;;;;;20.20;15.33;;;0.80;99.90;;;;;;5016533;28;20449;-59
2021/01/12 01:22:25;;;;;;;21.90;15.80;;;0.80;99.90;;;;;;5014919;28;20414;-60
2021/01/12 01:24:50;;;;;;;20.30;14.17;;;0.80;99.90;;;;;;5014746;28;20172;-58
2021/01/12 01:27:16;;;;;;;18.33;13.70;;;0.80;99.90;;;;;;5014180;28;20191;-59
2021/01/12 01:29:42;;;;;;;19.27;14.07;;;0.80;99.90;;;;;;5014482;28;20201;-58
2021/01/12 01:32:10;;;;;;;19.23;13.63;;;0.90;99.90;;;;;;5015002;28;20257;-57
2021/01/12 01:34:36;;;;;;;16.30;12.80;;;0.90;99.90;;;;;;5014048;28;20420;-56
2021/01/12 01:37:01;;;;;;;17.70;13.27;;;1.00;99.90;;;;;;5014963;28;20460;-59
2021/01/12 01:39:27;;;;;;;16.83;12.77;;;1.00;99.90;;;;;;5014838;28;20446;-59
2021/01/12 01:41:55;;;;;;;17.67;13.63;;;1.10;99.90;;;;;;5014782;28;20638;-59
2021/01/12 01:44:20;;;;;;;15.53;12.43;;;1.20;99.90;;;;;;5014440;28;20180;-58
2021/01/12 01:46:46;;;;;;;17.53;12.87;;;1.30;99.90;;;;;;5014731;28;20408;-56
2021/01/12 01:49:11;;;;;;;15.53;12.27;;;1.30;99.90;;;;;;5013068;28;20232;-59
2021/01/12 01:51:39;;;;;;;15.17;12.50;;;1.20;99.90;;;;;;5014656;28;20180;-57
2021/01/12 01:54:05;;;;;;;16.77;12.30;;;1.20;99.90;;;;;;5014463;28;20225;-58
2021/01/12 01:56:31;;;;;;;14.83;12.00;;;1.10;99.90;;;;;;5014513;28;20396;-58
2021/01/12 01:58:56;;;;;;;16.00;12.60;;;1.20;99.90;;;;;;5014561;28;20784;-59
2021/01/12 02:01:22;;;;;;;16.00;12.27;;;1.20;99.90;;;;;;5013154;28;21023;-59
2021/01/12 02:04:06;;;;;;;13.97;11.50;;;1.30;99.90;;;;;;5014325;28;20550;-59
2021/01/12 02:06:35;;;;;;;13.53;11.10;;;1.30;99.90;;;;;;5014520;28;20624;-59
2021/01/12 02:09:20;;;;;;;14.60;11.30;;;1.20;99.90;;;;;;5013006;28;20433;-60
2021/01/12 02:11:52;;;;;;;15.17;12.07;;;1.20;99.90;;;;;;5014349;28;20402;-60
2021/01/12 02:14:20;;;;;;;15.50;11.50;;;1.20;99.90;;;;;;5014488;28;20856;-57
2021/01/12 02:16:46;;;;;;;16.20;11.30;;;1.30;99.90;;;;;;5014401;28;20406;-58
2021/01/12 02:19:19;;;;;;;14.70;11.60;;;1.30;99.90;;;;;;4997242;28;20417;-58
2021/01/12 02:21:47;;;;;;;14.17;11.13;;;1.30;99.90;;;;;;5015161;28;20398;-59
2021/01/12 02:24:14;;;;;;;16.53;11.17;;;1.40;99.90;;;;;;4996164;28;20421;-57
2021/01/12 02:26:39;;;;;;;14.47;11.40;;;1.30;99.90;;;;;;5015820;28;20516;-58
2021/01/12 02:29:05;;;;;;;15.57;11.70;;;1.30;99.90;;;;;;5014189;28;20840;-55
2021/01/12 02:31:31;;;;;;;15.77;11.00;;;1.30;99.90;;;;;;5013749;28;20678;-59
2021/01/12 02:34:01;;;;;;;15.90;12.30;;;1.30;99.90;;;;;;5012533;28;20199;-59
2021/01/12 02:36:30;;;;;;;13.40;10.03;;;1.40;99.90;;;;;;5013991;28;20417;-58
2021/01/12 02:38:59;;;;;;;15.13;10.97;;;1.40;99.90;;;;;;5013703;28;20414;-58
2021/01/12 02:41:33;;;;;;;13.53;10.80;;;1.30;99.90;;;;;;5011957;28;20524;-60
2021/01/12 02:43:59;;;;;;;13.20;10.50;;;1.30;99.90;;;;;;5013771;28;20845;-60
2021/01/12 02:46:25;;;;;;;13.43;10.20;;;1.40;99.90;;;;;;5013605;28;20407;-57
2021/01/12 02:48:51;;;;;;;11.33;9.97;;;1.40;99.90;;;;;;5012315;28;20872;-60
2021/01/12 02:51:17;;;;;;;13.83;9.80;;;1.40;99.90;;;;;;5017932;28;20228;-58
2021/01/12 02:53:42;;;;;;;13.53;11.20;;;1.40;99.90;;;;;;5015450;28;20946;-56
2021/01/12 02:56:08;;;;;;;10.30;9.20;;;1.40;99.90;;;;;;5012691;28;20178;-60
2021/01/12 02:58:34;;;;;;;12.17;9.03;;;1.50;99.90;;;;;;5013482;28;20652;-59
2021/01/12 03:00:59;;;;;;;10.30;8.23;;;1.50;99.90;;;;;;5013401;28;20185;-58
2021/01/12 03:03:25;;;;;;;11.60;9.83;;;1.70;99.90;;;;;;5013561;28;20203;-59
2021/01/12 03:05:51;;;;;;;9.77;8.77;;;1.70;99.90;;;;;;5014104;28;20211;-60
2021/01/12 03:08:16;;;;;;;10.50;8.90;;;1.70;99.90;;;;;;5012706;28;20609;-59
2021/01/12 03:10:42;;;;;;;11.37;9.50;;;1.80;99.90;;;;;;5013059;28;20277;-60
2021/01/12 03:13:08;;;;;;;12.00;9.57;;;1.80;99.90;;;;;;5013629;28;20206;-60
2021/01/12 03:15:40;;;;;;;10.73;8.27;;;1.80;99.90;;;;;;5013448;28;20172;-60
2021/01/12 03:18:06;;;;;;;11.70;8.50;;;1.90;99.90;;;;;;5013605;28;20192;-59
2021/01/12 03:20:32;;;;;;;10.20;8.73;;;1.90;99.90;;;;;;5012184;28;20798;-58
2021/01/12 03:22:58;;;;;;;10.90;8.93;;;1.90;99.90;;;;;;5013227;28;20447;-59
2021/01/12 03:25:24;;;;;;;9.03;7.70;;;1.80;99.90;;;;;;5012447;28;20457;-56
2021/01/12 03:27:49;;;;;;;10.53;8.20;;;1.80;99.90;;;;;;5013408;28;20920;-59
2021/01/12 03:30:17;;;;;;;11.53;9.07;;;2.00;99.90;;;;;;5013287;28;20206;-57
2021/01/12 03:32:42;;;;;;;10.97;8.80;;;1.90;99.90;;;;;;5013085;28;20271;-59
2021/01/12 03:35:10;;;;;;;9.63;7.67;;;2.00;99.90;;;;;;5012591;28;20897;-58
2021/01/12 03:37:37;;;;;;;8.40;6.80;;;1.90;99.90;;;;;;5012993;28;20405;-58
2021/01/12 03:40:06;;;;;;;12.23;7.93;;;2.00;99.90;;;;;;5012929;28;20484;-56
2021/01/12 03:42:31;;;;;;;10.03;8.87;;;1.90;99.90;;;;;;5013202;28;20406;-56
2021/01/12 03:44:57;;;;;;;10.97;8.70;;;1.90;99.90;;;;;;5013433;28;20419;-55
2021/01/12 03:47:23;;;;;;;11.10;8.90;;;2.00;99.90;;;;;;5013203;28;20264;-59
2021/01/12 03:49:49;;;;;;;8.80;7.40;;;2.00;99.90;;;;;;5012852;28;20903;-58
2021/01/12 03:52:14;;;;;;;10.33;7.90;;;1.90;99.90;;;;;;5015465;28;20274;-60
2021/01/12 03:54:40;;;;;;;10.10;8.43;;;2.00;99.90;;;;;;5016650;28;20185;-59
2021/01/12 03:57:05;;;;;;;8.57;7.13;;;2.00;99.90;;;;;;5016858;28;20607;-58
2021/01/12 03:59:31;;;;;;;10.27;7.13;;;2.00;99.90;;;;;;5016534;28;20184;-59
2021/01/12 04:01:57;;;;;;;8.77;6.80;;;2.00;99.90;;;;;;5016426;28;20173;-58
2021/01/12 04:04:22;;;;;;;10.17;7.93;;;2.10;99.90;;;;;;5016173;28;20213;-57
2021/01/12 04:06:48;;;;;;;9.57;7.97;;;2.00;99.90;;;;;;5016156;28;20423;-59
2021/01/12 04:09:14;;;;;;;9.23;7.53;;;2.00;99.90;;;;;;5015347;28;20636;-58
2021/01/12 04:11:39;;;;;;;9.90;7.50;;;2.10;99.90;;;;;;5016471;28;20580;-58
2021/01/12 04:14:08;;;;;;;10.77;7.67;;;2.10;99.90;;;;;;5016651;28;20202;-58
2021/01/12 04:16:34;;;;;;;9.50;7.60;;;2.20;99.90;;;;;;5016174;28;20567;-60
2021/01/12 04:18:59;;;;;;;10.80;7.90;;;2.30;99.90;;;;;;5014976;28;20475;-59
2021/01/12 04:21:25;;;;;;;9.77;7.83;;;2.20;99.90;;;;;;5016336;28;20647;-58
2021/01/12 04:23:51;;;;;;;10.27;8.23;;;2.10;99.90;;;;;;5015827;28;20210;-58
2021/01/12 04:26:16;;;;;;;9.30;8.00;;;2.10;99.90;;;;;;5015973;28;20234;-59
2021/01/12 04:28:42;;;;;;;8.53;6.53;;;2.20;99.90;;;;;;5016298;28;20176;-58
2021/01/12 04:31:08;;;;;;;10.20;7.73;;;2.30;99.90;;;;;;5016147;28;20197;-57
2021/01/12 04:33:34;;;;;;;11.00;8.87;;;2.30;99.90;;;;;;5000923;28;20198;-57
2021/01/12 04:35:59;;;;;;;8.50;6.60;;;2.30;99.90;;;;;;5015743;28;20415;-58
2021/01/12 04:38:25;;;;;;;10.60;7.57;;;2.30;99.90;;;;;;5015897;28;20185;-58
2021/01/12 04:40:51;;;;;;;10.40;8.20;;;2.20;99.90;;;;;;5016803;28;20194;-57
2021/01/12 04:43:16;;;;;;;9.87;7.80;;;2.50;99.90;;;;;;5016575;28;20175;-58
2021/01/12 04:45:42;;;;;;;8.33;6.60;;;2.50;99.90;;;;;;5016395;28;20533;-55
2021/01/12 04:48:08;;;;;;;9.20;7.70;;;2.50;99.90;;;;;;5015224;28;20193;-55
2021/01/12 04:50:34;;;;;;;9.07;7.50;;;2.60;99.90;;;;;;5015938;28;20227;-58
2021/01/12 04:52:59;;;;;;;8.60;7.63;;;2.50;99.90;;;;;;5015269;28;20879;-60
2021/01/12 04:55:25;;;;;;;11.93;8.17;;;2.50;99.90;;;;;;5014650;28;20227;-60
2021/01/12 04:57:52;;;;;;;10.03;7.60;;;2.60;99.90;;;;;;4998057;28;20177;-59
2021/01/12 05:00:25;;;;;;;10.53;7.97;;;2.60;99.90;;;;;;5015357;28;20324;-58
2021/01/12 05:03:07;;;;;;;8.50;7.60;;;2.50;99.90;;;;;;5014517;28;20415;-59
2021/01/12 05:05:37;;;;;;;10.27;7.70;;;2.40;99.90;;;;;;5015383;28;20406;-57
2021/01/12 05:08:05;;;;;;;9.00;7.07;;;2.50;99.90;;;;;;5015295;28;20425;-57
2021/01/12 05:10:38;;;;;;;8.80;7.90;;;2.50;99.90;;;;;;5014365;28;20808;-57
2021/01/12 05:13:09;;;;;;;12.43;8.60;;;2.40;99.90;;;;;;5015383;28;20477;-57
2021/01/12 05:15:39;;;;;;;10.47;8.20;;;2.40;99.90;;;;;;5015426;28;20407;-56
2021/01/12 05:18:10;;;;;;;9.40;7.87;;;2.40;99.90;;;;;;5015518;28;20413;-57
2021/01/12 05:20:43;;;;;;;10.03;8.50;;;2.50;99.90;;;;;;5014571;28;20963;-59
2021/01/12 05:23:11;;;;;;;8.60;7.10;;;2.40;99.90;;;;;;5015351;28;20425;-57
2021/01/12 05:25:41;;;;;;;9.83;8.70;;;2.20;99.90;;;;;;5015408;28;20449;-60
2021/01/12 05:28:11;;;;;;;11.30;8.97;;;2.30;99.90;;;;;;5015262;28;20432;-59
2021/01/12 05:30:38;;;;;;;10.77;8.63;;;2.50;99.90;;;;;;5015337;28;20449;-57
2021/01/12 05:33:04;;;;;;;11.33;8.70;;;2.50;99.90;;;;;;5015650;28;20598;-59
2021/01/12 05:35:30;;;;;;;9.70;7.70;;;2.50;99.90;;;;;;5015092;28;20764;-55
2021/01/12 05:38:04;;;;;;;9.50;7.93;;;2.40;99.90;;;;;;5015178;28;20410;-55
2021/01/12 05:40:32;;;;;;;11.73;8.50;;;2.40;99.90;;;;;;5014981;28;20434;-58
2021/01/12 05:43:09;;;;;;;10.63;8.53;;;2.30;99.90;;;;;;4997009;28;20427;-56
2021/01/12 05:45:36;;;;;;;13.00;9.83;;;2.40;99.90;;;;;;5020950;28;20921;-59
2021/01/12 05:48:02;;;;;;;9.97;8.40;;;2.40;99.90;;;;;;5014401;28;20433;-59
2021/01/12 05:50:30;;;;;;;9.87;7.30;;;2.50;99.90;;;;;;5014401;28;20458;-58
2021/01/12 05:53:07;;;;;;;12.50;8.43;;;2.40;99.90;;;;;;5013397;28;20466;-58
2021/01/12 05:55:41;;;;;;;11.10;7.77;;;2.50;99.90;;;;;;5014648;28;20406;-59
2021/01/12 05:58:30;;;;;;;10.40;8.23;;;2.40;99.90;;;;;;5014333;28;20409;-59
2021/01/12 06:01:01;;;;;;;9.67;8.13;;;2.50;99.90;;;;;;5014233;28;20962;-59
2021/01/12 06:03:30;;;;;;;9.53;7.83;;;2.50;99.90;;;;;;4995757;28;20414;-60
2021/01/12 06:05:56;;;;;;;10.83;8.37;;;2.60;99.90;;;;;;5014265;28;20984;-59
2021/01/12 06:08:21;;;;;;;7.50;6.47;;;2.60;99.90;;;;;;5014288;28;20493;-58
2021/01/12 06:10:50;;;;;;;7.30;6.57;;;2.60;99.90;;;;;;5014485;28;20433;-60
2021/01/12 06:13:17;;;;;;;8.63;6.70;;;2.70;99.90;;;;;;5014450;28;20239;-58
2021/01/12 06:15:45;;;;;;;7.90;6.50;;;2.60;99.90;;;;;;5014982;28;20415;-58
2021/01/12 06:18:16;;;;;;;10.30;8.30;;;2.60;99.90;;;;;;5015198;28;20983;-59
2021/01/12 06:20:55;;;;;;;9.30;7.30;;;2.80;99.90;;;;;;4996085;28;20966;-58
2021/01/12 06:23:36;;;;;;;9.07;7.47;;;2.80;99.90;;;;;;5013942;28;20395;-58
2021/01/12 06:26:02;;;;;;;8.13;7.30;;;2.80;99.90;;;;;;5013898;28;20402;-58
2021/01/12 06:28:28;;;;;;;9.43;7.00;;;2.70;99.90;;;;;;5013751;28;20409;-60
2021/01/12 06:30:55;;;;;;;7.03;6.30;;;2.80;99.90;;;;;;5016723;28;21002;-58
2021/01/12 06:33:21;;;;;;;8.30;6.67;;;2.70;99.90;;;;;;5013805;28;20458;-56
2021/01/12 06:35:50;;;;;;;10.10;7.97;;;2.60;99.90;;;;;;5013493;28;20421;-58
2021/01/12 06:38:20;;;;;;;9.90;7.43;;;2.60;99.90;;;;;;5013803;28;20182;-58
2021/01/12 06:40:53;;;;;;;7.90;6.50;;;2.60;99.90;;;;;;5014415;28;20434;-59
2021/01/12 06:43:24;;;;;;;9.07;6.67;;;2.70;99.90;;;;;;5014337;28;20906;-58
2021/01/12 06:45:52;;;;;;;8.30;6.90;;;2.70;99.90;;;;;;5014753;28;20395;-55
2021/01/12 06:48:18;;;;;;;8.47;7.07;;;2.60;99.90;;;;;;5014037;28;20920;-59
2021/01/12 06:50:48;;;;;;;9.10;7.23;;;2.50;99.90;;;;;;4994880;28;20457;-59
2021/01/12 06:53:15;;;;;;;10.00;7.70;;;2.60;99.90;;;;;;5013557;28;20459;-60
2021/01/12 06:55:41;;;;;;;8.17;6.77;;;2.60;99.90;;;;;;5013731;28;20875;-59
2021/01/12 06:58:10;;;;;;;9.40;6.63;;;2.70;99.90;;;;;;5013151;28;20446;-57
2021/01/12 07:00:36;;;;;;;8.80;6.93;;;2.60;99.90;;;;;;5013285;28;20922;-58
2021/01/12 07:03:04;;;;;;;9.40;6.83;;;2.60;99.90;;;;;;5013539;28;20538;-58
2021/01/12 07:05:37;;;;;;;9.93;6.83;;;2.70;99.90;;;;;;5012162;28;20521;-59
2021/01/12 07:08:08;;;;;;;8.87;6.60;;;2.70;99.90;;;;;;5013256;28;20417;-57
2021/01/12 07:10:40;;;;;;;10.53;6.17;;;2.70;99.90;;;;;;5013537;28;20878;-56
2021/01/12 07:13:06;;;;;;;9.20;7.70;;;2.80;99.90;;;;;;5010893;28;20434;-59
2021/01/12 07:15:41;;;;;;;7.87;6.43;;;3.10;99.90;;;;;;5013176;28;20715;-59
2021/01/12 07:18:07;;;;;;;7.97;7.10;;;2.90;99.90;;;;;;5012631;28;20420;-58
2021/01/12 07:20:36;;;;;;;7.70;6.40;;;3.00;99.90;;;;;;5013335;28;20428;-58
2021/01/12 07:23:08;;;;;;;8.83;7.20;;;3.00;99.90;;;;;;5013782;28;20438;-59
2021/01/12 07:25:35;;;;;;;9.30;7.07;;;3.10;99.90;;;;;;5013511;28;20407;-59
2021/01/12 07:28:08;;;;;;;8.60;6.60;;;3.00;99.90;;;;;;5016690;28;20399;-60
2021/01/12 07:30:41;;;;;;;8.30;6.40;;;3.00;99.90;;;;;;5017533;28;20995;-59
2021/01/12 07:33:08;;;;;;;9.17;7.33;;;3.00;99.90;;;;;;5017673;28;20495;-58
2021/01/12 07:35:36;;;;;;;7.67;6.67;;;3.10;99.90;;;;;;5017112;28;20913;-57
2021/01/12 07:38:02;;;;;;;7.93;6.80;;;3.00;99.90;;;;;;5015773;28;20512;-57
2021/01/12 07:40:29;;;;;;;7.77;6.70;;;3.00;99.90;;;;;;5016804;28;20429;-58
2021/01/12 07:43:00;;;;;;;7.40;6.07;;;2.90;99.90;;;;;;5017496;28;20441;-58
2021/01/12 07:45:31;;;;;;;8.33;6.20;;;3.00;99.90;;;;;;5017314;28;20412;-57
2021/01/12 07:47:58;;;;;;;8.40;6.80;;;3.10;99.90;;;;;;5015708;28;20504;-59
2021/01/12 07:50:26;;;;;;;6.90;6.20;;;3.00;99.90;;;;;;5017237;28;20426;-59
2021/01/12 07:52:52;;;;;;;9.67;7.50;;;2.90;99.90;;;;;;5016857;28;20498;-59
2021/01/12 07:55:18;;;;;;;8.00;6.33;;;3.00;99.90;;;;;;5016936;28;20904;-55
2021/01/12 07:57:46;;;;;;;6.63;5.73;;;3.10;99.90;;;;;;5017555;28;20477;-55
2021/01/12 08:00:13;;;;;;;7.63;6.13;;;3.10;99.90;;;;;;5017919;28;20795;-55
2021/01/12 08:02:42;;;;;;;7.77;6.10;;;3.10;99.90;;;;;;5018014;28;20403;-57
2021/01/12 08:05:09;;;;;;;8.43;6.50;;;3.10;99.90;;;;;;5018364;28;20430;-58
2021/01/12 08:07:36;;;;;;;7.47;6.00;;;3.30;99.90;;;;;;5017657;28;20407;-55
2021/01/12 08:10:04;;;;;;;9.00;6.70;;;3.30;99.90;;;;;;5015540;28;20458;-59
2021/01/12 08:12:30;;;;;;;7.38;6.45;;;3.30;99.90;;;;;;5016273;28;20788;-59
2021/01/12 08:15:11;;;;;;;7.60;6.83;;;3.40;99.90;;;;;;5016396;28;20247;-59
2021/01/12 08:17:44;;;;;;;6.97;6.20;;;3.50;99.90;;;;;;5016163;28;20641;-59
2021/01/12 08:20:11;;;;;;;7.53;6.73;;;3.50;99.90;;;;;;5015196;28;20525;-58
2021/01/12 08:22:37;;;;;;;9.03;7.40;;;3.40;99.90;;;;;;4998316;28;20469;-59
2021/01/12 08:25:07;;;;;;;9.73;6.90;;;3.40;99.90;;;;;;5015710;28;20938;-60
2021/01/12 08:27:33;;;;;;;7.00;5.27;;;3.50;99.90;;;;;;5018368;28;20505;-59
2021/01/12 08:30:09;;;;;;;8.00;6.87;;;3.50;99.90;;;;;;5015736;28;20437;-59
2021/01/12 08:32:44;;;;;;;7.40;6.00;;;3.50;99.90;;;;;;5014863;28;20437;-58
2021/01/12 08:35:12;;;;;;;6.93;5.80;;;3.50;99.90;;;;;;5015734;28;20401;-59
2021/01/12 08:37:41;;;;;;;6.97;6.23;;;3.60;99.90;;;;;;5026778;28;20910;-59
2021/01/12 08:40:08;;;;;;;7.20;5.27;;;3.60;99.90;;;;;;5035747;28;20433;-57
2021/01/12 08:42:40;;;;;;;4.83;4.27;;;3.70;99.90;;;;;;5023027;28;20430;-58
2021/01/12 08:45:17;;;;;;;6.73;5.00;;;3.60;99.90;;;;;;5014653;28;20510;-56
2021/01/12 08:47:45;;;;;;;5.10;4.50;;;3.70;99.90;;;;;;5015398;28;20736;-58
2021/01/12 08:50:12;;;;;;;5.50;4.70;;;3.70;99.90;;;;;;5014542;28;21031;-59
2021/01/12 08:52:40;;;;;;;4.47;4.07;;;3.80;99.90;;;;;;5015858;28;20446;-60
2021/01/12 08:55:21;;;;;;;5.57;4.30;;;3.80;99.90;;;;;;5015603;28;20414;-59
2021/01/12 08:58:01;;;;;;;5.63;4.60;;;3.80;99.90;;;;;;5015135;28;20854;-60
2021/01/12 09:00:37;;;;;;;5.13;4.40;;;3.80;99.90;;;;;;5015587;28;20414;-59
2021/01/12 09:03:04;;;;;;;4.67;3.67;;;3.80;99.90;;;;;;5015582;28;20507;-59
2021/01/12 09:05:36;;;;;;;5.27;4.40;;;3.80;99.90;;;;;;5014744;28;20406;-58
2021/01/12 09:08:03;;;;;;;3.97;3.53;;;3.80;99.90;;;;;;5015733;28;20419;-56
2021/01/12 09:10:30;;;;;;;4.70;3.87;;;3.90;99.90;;;;;;5015854;28;20800;-59
2021/01/12 09:12:56;;;;;;;5.30;4.07;;;3.90;99.90;;;;;;5015422;28;20453;-58
2021/01/12 09:15:32;;;;;;;4.23;3.83;;;4.00;99.90;;;;;;5015954;28;20411;-58
2021/01/12 09:18:08;;;;;;;3.67;3.37;;;4.00;99.90;;;;;;5015140;28;20164;-59
2021/01/12 09:20:37;;;;;;;4.43;3.77;;;4.00;99.90;;;;;;5014130;28;20481;-60
2021/01/12 09:23:13;;;;;;;5.20;3.77;;;4.00;99.90;;;;;;5014882;28;20407;-60
2021/01/12 09:25:52;;;;;;;4.63;3.70;;;4.10;99.90;;;;;;4997338;28;20773;-60
2021/01/12 09:28:23;;;;;;;3.67;3.23;;;4.00;99.90;;;;;;4981029;28;20406;-60
2021/01/12 09:30:49;;;;;;;4.77;3.97;;;4.10;99.90;;;;;;5014611;28;20827;-59
2021/01/12 09:33:23;;;;;;;4.37;3.80;;;4.10;99.90;;;;;;5014650;28;20457;-60
2021/01/12 09:36:09;;;;;;;4.03;3.20;;;4.10;99.90;;;;;;5015092;28;20151;-59
2021/01/12 09:38:43;;;;;;;4.03;3.40;;;4.20;99.90;;;;;;5014076;28;20409;-58
2021/01/12 09:41:10;;;;;;;4.03;3.50;;;4.20;99.90;;;;;;5014487;28;20419;-59
2021/01/12 09:43:37;;;;;;;4.07;3.60;;;4.20;99.90;;;;;;5014787;28;20498;-59
2021/01/12 09:46:03;;;;;;;3.70;3.27;;;4.10;99.90;;;;;;5014781;28;20419;-59
2021/01/12 09:48:29;;;;;;;3.20;2.90;;;4.10;99.90;;;;;;5013815;28;20438;-59
2021/01/12 09:50:55;;;;;;;3.63;2.63;;;4.00;99.90;;;;;;5014987;28;20553;-59
2021/01/12 09:53:21;;;;;;;2.77;2.53;;;4.10;99.90;;;;;;5013677;28;20224;-58
2021/01/12 09:55:46;;;;;;;4.67;2.50;;;4.00;99.90;;;;;;5014550;28;20168;-54
2021/01/12 09:58:12;;;;;;;2.10;1.90;;;4.00;99.90;;;;;;5014727;28;20402;-59
2021/01/12 10:00:37;;;;;;;2.00;1.77;;;4.10;99.90;;;;;;5014327;28;20206;-58
2021/01/12 10:03:06;;;;;;;2.27;2.07;;;4.10;99.90;;;;;;5014584;28;20592;-56
2021/01/12 10:05:36;;;;;;;2.07;1.87;;;4.00;99.90;;;;;;5013979;28;20195;-59
2021/01/12 10:08:02;;;;;;;2.53;1.90;;;4.00;99.90;;;;;;5013506;28;20422;-59
2021/01/12 10:10:28;;;;;;;2.47;2.03;;;4.00;99.90;;;;;;5013818;28;20518;-59
2021/01/12 10:12:53;;;;;;;2.17;1.97;;;4.00;99.90;;;;;;4996832;28;20203;-58
2021/01/12 10:15:19;;;;;;;2.10;1.90;;;4.00;99.90;;;;;;5012962;28;20172;-59
2021/01/12 10:17:44;;;;;;;2.30;1.90;;;3.90;99.90;;;;;;5014226;28;20171;-59
2021/01/12 10:20:10;;;;;;;2.70;2.33;;;3.80;99.90;;;;;;5014071;28;20667;-59
2021/01/12 10:22:36;;;;;;;2.20;1.80;;;3.80;99.90;;;;;;5013619;28;20259;-57
2021/01/12 10:25:03;;;;;;;2.63;1.80;;;3.80;99.90;;;;;;5013898;28;20171;-59
2021/01/12 10:27:34;;;;;;;2.20;2.03;;;3.80;99.90;;;;;;5013850;28;20192;-59
2021/01/12 10:30:00;;;;;;;2.00;1.90;;;3.70;99.90;;;;;;5014010;28;20457;-58
2021/01/12 10:32:28;;;;;;;4.80;2.47;;;3.70;99.90;;;;;;5031467;28;20414;-56
2021/01/12 10:34:53;;;;;;;2.10;1.90;;;3.70;99.90;;;;;;5033627;28;20987;-55
2021/01/12 10:37:19;;;;;;;3.83;2.40;;;3.80;99.90;;;;;;5033403;28;20568;-59
2021/01/12 10:39:45;;;;;;;1.70;1.40;;;3.90;99.90;;;;;;5033534;28;20540;-56
2021/01/12 10:42:11;;;;;;;2.47;2.10;;;3.80;99.90;;;;;;5033952;28;20255;-55
2021/01/12 10:44:37;;;;;;;2.57;2.27;;;3.70;99.90;;;;;;5019445;28;20990;-59
2021/01/12 10:47:03;;;;;;;1.70;1.60;;;3.90;99.90;;;;;;5012742;28;20422;-59
2021/01/12 10:49:28;;;;;;;2.03;1.60;;;3.90;99.90;;;;;;5012891;28;20200;-55
2021/01/12 10:51:58;;;;;;;1.67;1.57;;;3.90;99.90;;;;;;5013234;28;20407;-55
2021/01/12 10:54:23;;;;;;;2.17;1.53;;;4.00;99.90;;;;;;5013583;28;20210;-59
2021/01/12 10:56:49;;;;;;;1.93;1.73;;;4.00;99.90;;;;;;5014665;28;20497;-54
2021/01/12 10:59:15;;;;;;;1.37;1.23;;;4.00;99.90;;;;;;5014434;28;20172;-56
2021/01/12 11:01:40;;;;;;;1.17;1.07;;;3.90;99.90;;;;;;5014272;28;20172;-56
2021/01/12 11:04:06;;;;;;;5.47;1.40;;;4.00;99.90;;;;;;5013716;28;20207;-56
2021/01/12 11:06:36;;;;;;;1.43;1.33;;;3.90;99.90;;;;;;5015318;28;20572;-57
2021/01/12 11:09:03;;;;;;;1.57;1.40;;;3.80;99.90;;;;;;5014777;28;20180;-54
2021/01/12 11:11:34;;;;;;;7.47;1.70;;;3.80;99.90;;;;;;5014649;28;20434;-55
2021/01/12 11:14:03;;;;;;;2.23;0.90;;;3.80;99.90;;;;;;5014325;28;20960;-56
2021/01/12 11:16:39;;;;;;;1.40;1.10;;;3.80;99.90;;;;;;5013360;28;20492;-58
2021/01/12 11:19:05;;;;;;;1.17;1.07;;;3.80;99.90;;;;;;5013835;28;20414;-57
2021/01/12 11:21:31;;;;;;;1.20;1.10;;;3.70;99.90;;;;;;5012137;28;20450;-58
2021/01/12 11:23:58;;;;;;;1.03;0.93;;;3.70;99.90;;;;;;5013222;28;20418;-56
2021/01/12 11:26:31;;;;;;;1.30;1.13;;;3.70;99.90;;;;;;5013109;28;20663;-59
2021/01/12 11:28:57;;;;;;;1.80;1.03;;;3.70;99.90;;;;;;5014104;28;20919;-57
2021/01/12 11:31:23;;;;;;;1.63;1.27;;;3.70;99.90;;;;;;5032061;28;20452;-57
2021/01/12 11:33:49;;;;;;;2.90;1.30;;;3.70;99.90;;;;;;5033132;28;20450;-54
2021/01/12 11:36:15;;;;;;;1.30;0.90;;;3.70;99.90;;;;;;5013426;28;20910;-57
2021/01/12 11:38:40;;;;;;;1.73;1.27;;;3.70;99.90;;;;;;5012171;28;21027;-59
2021/01/12 11:41:10;;;;;;;1.00;0.63;;;3.90;99.90;;;;;;4995345;28;20434;-59
2021/01/12 11:43:39;;;;;;;1.03;0.90;;;3.80;99.90;;;;;;5012702;28;20189;-58
2021/01/12 11:46:06;;;;;;;1.20;1.10;;;3.80;99.90;;;;;;5013315;28;20415;-59
2021/01/12 11:48:33;;;;;;;2.00;0.93;;;3.80;99.90;;;;;;5012864;28;20629;-58
2021/01/12 11:50:59;;;;;;;1.13;1.00;;;3.80;99.90;;;;;;5012162;28;20478;-57
2021/01/12 11:53:24;;;;;;;0.73;0.70;;;3.90;99.90;;;;;;5013032;28;20989;-57
2021/01/12 11:55:50;;;;;;;1.13;0.90;;;3.90;99.90;;;;;;5013119;28;20405;-54
2021/01/12 11:58:15;;;;;;;1.07;0.97;;;3.80;99.90;;;;;;4994566;28;20176;-57
2021/01/12 12:00:45;;;;;;;1.00;0.90;;;3.90;99.90;;;;;;5012655;28;20287;-57
2021/01/12 12:03:10;;;;;;;0.70;0.70;;;4.00;99.90;;;;;;5013054;28;20184;-55
2021/01/12 12:05:36;;;;;;;0.70;0.70;;;3.90;99.90;;;;;;5012952;28;20770;-59
2021/01/12 12:08:01;;;;;;;1.40;0.90;;;3.90;99.90;;;;;;5012461;28;20174;-58
2021/01/12 12:10:27;;;;;;;1.87;0.73;;;4.00;99.90;;;;;;4995208;28;20267;-60
2021/01/12 12:12:53;;;;;;;0.80;0.80;;;3.90;99.90;;;;;;5012667;28;20211;-56
2021/01/12 12:15:20;;;;;;;1.00;0.80;;;4.00;99.90;;;;;;5015928;28;20243;-56
2021/01/12 12:17:46;;;;;;;0.90;0.70;;;4.10;99.90;;;;;;5016189;28;20407;-57
2021/01/12 12:20:13;;;;;;;0.97;0.80;;;4.30;99.90;;;;;;5016388;28;20435;-57
2021/01/12 12:22:39;;;;;;;0.90;0.70;;;4.10;99.90;;;;;;5017775;28;20170;-58
2021/01/12 12:25:08;;;;;;;1.00;0.80;;;4.10;99.90;;;;;;5015787;28;20740;-57
2021/01/12 12:27:33;;;;;;;1.00;0.90;;;4.20;99.90;;;;;;5016056;28;20163;-57
2021/01/12 12:29:59;;;;;;;0.83;0.77;;;4.20;99.90;;;;;;5015725;28;20423;-57
2021/01/12 12:32:26;;;;;;;0.70;0.67;;;4.10;99.90;;;;;;5015573;28;20168;-57
2021/01/12 12:34:52;;;;;;;1.70;1.17;;;4.20;99.90;;;;;;5015751;28;20541;-58
2021/01/12 12:37:18;;;;;;;1.00;0.90;;;4.10;99.90;;;;;;5015270;28;20411;-58
2021/01/12 12:39:43;;;;;;;1.33;0.80;;;4.10;99.90;;;;;;5015250;28;20207;-57
2021/01/12 12:42:09;;;;;;;0.70;0.60;;;4.10;99.90;;;;;;4998093;28;20411;-57
2021/01/12 12:44:34;;;;;;;0.80;0.80;;;4.10;99.90;;;;;;5016121;28;20172;-57
2021/01/12 12:47:01;;;;;;;1.13;0.70;;;4.10;99.90;;;;;;5015369;28;20659;-58
2021/01/12 12:49:27;;;;;;;0.80;0.80;;;4.10;99.90;;;;;;5013832;28;20206;-58
2021/01/12 12:51:52;;;;;;;0.70;0.70;;;4.10;99.90;;;;;;5016156;28;20761;-57
2021/01/12 12:54:20;;;;;;;1.83;1.13;;;4.00;99.90;;;;;;5015295;28;20199;-57